Brookhaven Weather

Current Time: 09:08 Zulu

HWV METARs

Local Time Temperature Dew Point Wind Direction Wind Speed Wind Gust Sky Vis.
8/17/2018 8:56:00 AM 22.2° c 22.2° c 160° 3 kt - CLR 4.0 sm
8/17/2018 7:56:00 AM 22.8° c 22.8° c variable 0 kt - CLR 6.0 sm
8/17/2018 6:56:00 AM 24.4° c 22.8° c variable 0 kt - CLR 7.0 sm
8/17/2018 5:56:00 AM 25.0° c 23.3° c 240° 3 kt - CLR 8.0 sm

ISP TAF:

KISP 170831Z 1709/1806 VRB03KT P6SM FEW050 SCT200 
FM171300 21006KT P6SM FEW050 SCT150 
FM171700 19010KT P6SM FEW050 SCT150 SCT250 
FM172200 19012KT P6SM SCT050 SCT150 SCT250 PROB30 1800/1804 4SM TSRA BKN030CB 
FM180400 21010KT 5SM SHRA BKN050 PROB30 1804/1806 4SM TSRA BKN030CB
Weather data provided by aviationweather.gov. Pilots must verify weather before flying.